Aydin, Turkey
Current Conditions -  °F | °C
As of 5:20 AM on Saturday 25 Oct 2014 (Local Time) from LTFE Reporting Station
Broken Clouds Broken Clouds  
Wind Chill: 64°   Ceiling: 9000
Heat Index: 64°   Visibility: 6mi
Dew Point: 59°   Wind: 8mph
Humidity: 83%   Direction: 180°S
Pressure: 29.83"   Gusts: NA
Location:  37.86°N, 27.84°E
Report Text: LTFE 250220Z 18007KT 9999 SCT030 BKN090 18/15 Q1010 NOSIG
Loading
Personal Weather Stations






























Interactive Weather Map
Tropical Storm Tracking
New forecast layout! Learn more

10-Day Weather Forecast

Advertisements
Track Severe Weather on mobile